AirNav   Pilot Hours Calculator
 
 440 users online  

PS01 Sterling Heliport
Croydon, Pennsylvania, USA

GOING TO CROYDON?


FAA INFORMATION EFFECTIVE 05 NOVEMBER 2020

Location

FAA Identifier: PS01
Lat/Long: 40-04-52.6000N 074-53-39.2000W
40-04.876667N 074-53.653333W
40.0812778,-74.8942222
(estimated)
Elevation: 24 ft. / 7 m (estimated)
From city: 1 mile SE of CROYDON, PA
Time zone: UTC -5 (UTC -4 during Daylight Saving Time)
Zip code: 19021

Heliport Operations

Heliport use: Private use. Permission required prior to landing
Activation date: 10/2006
Control tower: no
ARTCC: NEW YORK CENTER
FSS: WILLIAMSPORT FLIGHT SERVICE STATION
Attendance: MON-FRI 0800-1700
Wind indicator: yes
Segmented circle: no

Heliport Communications

WX ASOS at PNE (5 nm W): 121.15 (215-677-0146)
WX ASOS at VAY (9 nm S): 119.325 (609-267-1176)
WX ASOS at TTN (12 nm N): 126.775 (609-538-8690)
WX AWOS-3 at LOM (17 nm W): 118.925 (215-646-1068)
WX ASOS at DYL (18 nm NW): 118.875 (215-345-0392)

Nearby radio navigation aids

VOR radial/distance  VOR name  Freq  Var
ARDr187/10.3YARDLEY VOR/DME108.2010W
GXUr299/14.3MC GUIRE VORTAC110.6012W
RBVr258/19.7ROBBINSVILLE VORTAC113.8010W
CYNr317/26.5COYLE VORTAC113.4010W
SBJr203/30.9SOLBERG VOR/DME112.9010W
PTWr114/31.7POTTSTOWN VORTAC116.5009W
OODr045/32.7WOODSTOWN VORTAC112.8010W
VCNr016/32.8CEDAR LAKE VOR/DME115.2010W
COLr259/36.4COLTS NECK VOR/DME115.4011W
MXEr084/37.0MODENA VORTAC113.2009W

 
NDB name  Hdg/Dist  Freq  Var  ID
AMBLER110/18.127512WING .. -. --.
LAKEHURST286/25.839611WNEL -. . .-..

Heliport Services

Airframe service: MAJOR
Powerplant service: MAJOR

Runway Information

Helipad H1

Dimensions: 50 x 50 ft. / 15 x 15 m
Surface: concrete, in good condition
Traffic pattern: leftleft

Heliport Ownership and Management from official FAA records

Ownership: Privately-owned
Owner: STERLING HELICOPTER
1226 RIVER ROAD
CROYDON, PA 19021
Phone 215-271-2510
Manager: PHIL BIDDEN
1226 RIVER ROAD
CROYDON, PA 19021
Phone 215-271-2510

Additional Remarks

CALL PRIOR TO USE FOR PERMISSION, NOISE ABATEMENT PROC & PREF FLT ROUTE.
AVOID OVR FLT OF HOMES & SCHOOL 0.5 NM NE.
FOR CD CTC PHILADELPHIA APCH AT 800-354-9884.

Instrument Procedures

There are no published instrument procedures at PS01.

Some nearby airports with instrument procedures:

KPNE - Northeast Philadelphia Airport (5 nm W)
KVAY - South Jersey Regional Airport (9 nm S)
N14 - Flying W Airport (10 nm SE)
KTTN - Trenton Mercer Airport (12 nm N)
KWRI - McGuire Field (Joint Base Mc Guire Dix Lakehurst) Airport (14 nm E)
N87 - Trenton-Robbinsville Airport (16 nm NE)
KLOM - Wings Field Airport (17 nm W)
19N - Camden County Airport (18 nm S)
KDYL - Doylestown Airport (18 nm NW)
 
Loc | Ops | Rwys | IFR | FBO | Links
Com | Nav | Svcs | Stats | Notes
Area around PS01 (Sterling Heliport)
 
Road maps at: MapQuest Bing Google
 
Aerial photo
No photo
 
Sectional chart

 
Airport distance calculator
Flying to Sterling Heliport? Find the distance to fly.

From to PS01

Sunrise and sunset
Times for 30-Nov-2020
 Local
(UTC-5)
 Zulu
(UTC)
Morning civil twilight06:3311:33
Sunrise07:0312:03
Sunset16:3421:34
Evening civil twilight17:0422:04

Current date and time
Zulu (UTC)  30-Nov-2020 07:26:04
Local (UTC-5)  30-Nov-2020 02:26:04
 
METAR
KPNE 
6nm W 
300654Z AUTO 04005KT 10SM BKN041 BKN049 07/03 A3002 RMK AO2 SLP165 T00670033
KVAY 
9nm S 
ASOS 119.325 609-267-1176
300654Z AUTO 00000KT 10SM FEW047 07/04 A3001 RMK AO2 SLP161 T00720044
KTTN 
13nm N 
ASOS 133.70 609-538-8690
300653Z AUTO 07003KT 10SM FEW037 BKN046 06/02 A3002 RMK AO2 SLP159 T00610017
KWRI 
15nm E 
300656Z AUTO 12005KT 10SM FEW047 06/04 A3001 RMK AO2 SLP162 T00550035 $
KLOM 
17nm W 
300715Z AUTO 06004KT 10SM BKN039 BKN047 BKN050 06/03 A2999 RMK AO2 T00590034
KDYL 
18nm NW 
300654Z AUTO 00000KT 10SM SCT042 07/02 A3000 RMK AO2 SLP162 T00720022
TAF
KPNE 
6nm W 
300543Z 3006/0106 VRB03KT P6SM BKN250 TEMPO 3009/3012 BKN020 OVC250 FM301200 09011KT 5SM -RA OVC025 WS020/12040KT FM301400 10012G21KT 2SM RA BR SCT008 OVC015 WS020/13040KT TEMPO 3014/3016 1SM +RA BR BKN007 OVC015 FM301700 16015G30KT 3SM SHRA OVC015 FM302100 18014G26KT 6SM -SHRA BKN020 FM010200 24008KT P6SM SCT060
KTTN 
13nm N 
300543Z 3006/0106 VRB03KT P6SM BKN250 TEMPO 3009/3012 BKN030 OVC250 FM301200 09010KT 4SM -RA OVC025 WS020/12040KT FM301500 11014G23KT 2SM RA BR SCT008 OVC015 WS020/13050KT TEMPO 3015/3017 1SM +RA BR BKN007 OVC015 FM301700 16015G29KT 3SM SHRA BKN015 FM302100 18014G26KT 5SM -SHRA BKN020 FM010300 24008KT P6SM SCT060
KWRI 
15nm E 
300200Z 3002/0108 16006KT 9999 SCT200 QNH2983INS BECMG 3011/3012 10015KT 9000 -RA BR SCT010 BKN020 QNH2972INS BECMG 3013/3014 14018G28KT 6000 RA BR SCT008 BKN010 550109 QNH2959INS BECMG 3015/3016 15018G28KT 4800 RA BR BKN009 550109 QNH2939INS TEMPO 3015/3020 16025G35KT 4800 RA BR BECMG 3021/3022 18015G25KT 8000 -SHRA BR SCT008 BKN015 QNH2939INS BECMG 0102/0104 26010KT 9999 NSW SCT008 BKN012 QNH2944INS TX20/3019Z TN04/3006Z
NOTAMs
Click for the latest NOTAMs
NOTAMs are issued by the DoD/FAA and will open in a separate window not controlled by AirNav.

 

 
 

Would you like to see your business listed on this page?

 If your business provides an interesting product or service to pilots, flight crews, aircraft, or users of the Sterling Heliport, you should consider listing it here.  To start the listing process, click on the button below
 
Add a business
 

Other Pages about Sterling Heliport

Update a link
 
Copyright © AirNav, LLC. All rights reserved. Privacy Policy  Contact